createdAt,value
2023-09-10T00:02:00.293Z,100544.34
2023-09-10T00:05:03.488Z,100543.09
2023-09-10T00:08:06.600Z,100539.91
2023-09-10T00:11:09.468Z,100542.78
2023-09-10T00:14:12.397Z,100539.78
2023-09-10T00:17:15.191Z,100532.72
2023-09-10T00:20:18.002Z,100533.34
2023-09-10T00:23:21.759Z,100534.75
2023-09-10T00:26:26.297Z,100533.75
2023-09-10T00:29:29.393Z,100536.38
2023-09-10T00:32:32.306Z,100533.16
2023-09-10T00:35:35.180Z,100537.97
2023-09-10T00:38:39.030Z,100539.22
2023-09-10T00:41:42.072Z,100531.94
2023-09-10T00:44:44.919Z,100531.56
2023-09-10T00:47:48.450Z,100539.84
2023-09-10T00:50:52.102Z,100538.41
2023-09-10T00:53:55.791Z,100545.03
2023-09-10T00:56:59.181Z,100538.16
2023-09-10T01:00:02.237Z,100543.56
2023-09-10T01:03:07.660Z,100544.63
2023-09-10T01:06:10.901Z,100544.41
2023-09-10T01:09:13.950Z,100543.44
2023-09-10T01:12:26.492Z,100543.84
2023-09-10T01:15:36.356Z,100550.13
2023-09-10T01:18:51.226Z,100539.59
2023-09-10T01:22:01.708Z,100547.09
2023-09-10T01:25:05.337Z,100540.22
2023-09-10T01:28:08.173Z,100543.88
2023-09-10T01:31:11.184Z,100546.31
2023-09-10T01:34:17.228Z,100542.72
2023-09-10T01:37:46.590Z,100531.00
2023-09-10T01:41:18.099Z,100538.25
2023-09-10T01:44:24.362Z,100544.72
2023-09-10T01:47:27.569Z,100545.09
2023-09-10T01:50:31.255Z,100542.28
2023-09-10T01:53:34.564Z,100533.22
2023-09-10T01:56:37.311Z,100543.91
2023-09-10T01:59:40.019Z,100534.25
2023-09-10T02:02:42.864Z,100545.53
2023-09-10T02:05:45.784Z,100543.72
2023-09-10T02:08:48.476Z,100544.94
2023-09-10T02:11:51.254Z,100549.16
2023-09-10T02:14:54.007Z,100545.94
2023-09-10T02:17:58.072Z,100545.72
2023-09-10T02:21:00.854Z,100545.72
2023-09-10T02:24:03.930Z,100548.97
2023-09-10T02:27:06.692Z,100552.63
2023-09-10T02:30:09.849Z,100559.06
2023-09-10T02:33:12.698Z,100561.88
2023-09-10T02:36:15.484Z,100550.59
2023-09-10T02:39:18.189Z,100554.00
2023-09-10T02:42:21.186Z,100553.59
2023-09-10T02:45:23.959Z,100553.22
2023-09-10T02:48:27.000Z,100555.00
2023-09-10T02:51:30.365Z,100549.94
2023-09-10T02:54:35.816Z,100551.97
2023-09-10T02:57:39.068Z,100549.91
2023-09-10T03:00:41.759Z,100556.59
2023-09-10T03:03:44.575Z,100555.53
2023-09-10T03:06:49.274Z,100548.06
2023-09-10T03:09:52.187Z,100557.13
2023-09-10T03:12:55.005Z,100561.16
2023-09-10T03:15:57.794Z,100558.16
2023-09-10T03:19:01.025Z,100556.13
2023-09-10T03:22:04.110Z,100557.72
2023-09-10T03:25:07.637Z,100552.72
2023-09-10T03:28:10.768Z,100550.09
2023-09-10T03:31:14.007Z,100548.50
2023-09-10T03:34:17.040Z,100552.13
2023-09-10T03:37:19.897Z,100551.91
2023-09-10T03:40:22.757Z,100552.13
2023-09-10T03:43:25.555Z,100553.50
2023-09-10T03:46:29.938Z,100550.28
2023-09-10T03:49:32.866Z,100549.69
2023-09-10T03:52:35.644Z,100549.25
2023-09-10T03:55:38.431Z,100561.31
2023-09-10T03:58:41.604Z,100558.06
2023-09-10T04:01:44.755Z,100552.91
2023-09-10T04:04:48.460Z,100558.41
2023-09-10T04:07:51.244Z,100561.88
2023-09-10T04:10:53.973Z,100554.44
2023-09-10T04:13:56.672Z,100562.94
2023-09-10T04:16:59.434Z,100567.41
2023-09-10T04:20:02.210Z,100565.78
2023-09-10T04:23:05.146Z,100561.00
2023-09-10T04:26:08.214Z,100561.59
2023-09-10T04:29:11.171Z,100558.41
2023-09-10T04:32:14.184Z,100549.72
2023-09-10T04:35:17.630Z,100560.00
2023-09-10T04:38:21.227Z,100563.44
2023-09-10T04:41:24.081Z,100560.81
2023-09-10T04:44:27.102Z,100564.22
2023-09-10T04:47:30.231Z,100559.28
2023-09-10T04:50:33.119Z,100562.31
2023-09-10T04:53:37.142Z,100569.78
2023-09-10T04:56:39.957Z,100566.63
2023-09-10T04:59:43.877Z,100565.84
2023-09-10T05:02:48.520Z,100577.16
2023-09-10T05:06:01.352Z,100575.97
2023-09-10T05:09:04.730Z,100582.06
2023-09-10T05:12:07.667Z,100583.28
2023-09-10T05:15:12.227Z,100588.56
2023-09-10T05:18:16.134Z,100593.03
2023-09-10T05:21:18.987Z,100593.66
2023-09-10T05:24:21.782Z,100599.75
2023-09-10T05:27:24.751Z,100588.09
2023-09-10T05:30:27.580Z,100593.34
2023-09-10T05:33:30.439Z,100597.38
2023-09-10T05:36:34.160Z,100600.19
2023-09-10T05:39:36.951Z,100597.56
2023-09-10T05:42:39.945Z,100593.13
2023-09-10T05:45:43.098Z,100593.13
2023-09-10T05:48:46.479Z,100605.03
2023-09-10T05:51:49.315Z,100606.03
2023-09-10T05:54:52.236Z,100595.47
2023-09-10T05:57:55.016Z,100595.44
2023-09-10T06:00:58.467Z,100602.06
2023-09-10T06:04:01.507Z,100603.00
2023-09-10T06:07:05.197Z,100596.28
2023-09-10T06:10:10.640Z,100602.31
2023-09-10T06:13:14.607Z,100604.25
2023-09-10T06:16:18.175Z,100600.97
2023-09-10T06:19:21.089Z,100603.13
2023-09-10T06:22:23.850Z,100612.09
2023-09-10T06:25:27.197Z,100606.50
2023-09-10T06:28:30.230Z,100601.94
2023-09-10T06:31:33.954Z,100601.34
2023-09-10T06:34:36.905Z,100604.38
2023-09-10T06:37:40.926Z,100605.47
2023-09-10T06:40:43.833Z,100601.00
2023-09-10T06:43:46.902Z,100605.22
2023-09-10T06:46:53.049Z,100601.78
2023-09-10T06:49:55.804Z,100612.75
2023-09-10T06:52:58.590Z,100611.09
2023-09-10T06:56:01.370Z,100610.06
2023-09-10T06:59:04.160Z,100608.28
2023-09-10T07:02:07.637Z,100609.47
2023-09-10T07:05:11.328Z,100605.59
2023-09-10T07:08:14.240Z,100618.47
2023-09-10T07:11:17.045Z,100614.66
2023-09-10T07:14:21.231Z,100621.66
2023-09-10T07:17:24.102Z,100618.59
2023-09-10T07:20:27.078Z,100619.81
2023-09-10T07:23:30.329Z,100604.84
2023-09-10T07:26:33.439Z,100622.94
2023-09-10T07:29:36.177Z,100619.78
2023-09-10T07:32:39.723Z,100617.09
2023-09-10T07:35:42.483Z,100615.22
2023-09-10T07:38:45.434Z,100613.34
2023-09-10T07:41:48.184Z,100612.63
2023-09-10T07:44:50.906Z,100614.50
2023-09-10T07:47:53.745Z,100615.19
2023-09-10T07:50:57.754Z,100615.41
2023-09-10T07:54:00.583Z,100617.03
2023-09-10T07:57:04.778Z,100612.19
2023-09-10T08:00:09.797Z,100613.59
2023-09-10T08:03:19.225Z,100615.66
2023-09-10T08:06:22.665Z,100617.78
2023-09-10T08:09:25.643Z,100609.47
2023-09-10T08:12:28.540Z,100601.31
2023-09-10T08:15:32.697Z,100605.50
2023-09-10T08:18:35.516Z,100611.72
2023-09-10T08:21:38.314Z,100611.88
2023-09-10T08:24:41.102Z,100612.59
2023-09-10T08:27:43.877Z,100604.56
2023-09-10T08:30:47.100Z,100606.31
2023-09-10T08:33:50.008Z,100606.66
2023-09-10T08:36:52.729Z,100619.28
2023-09-10T08:39:55.531Z,100610.03
2023-09-10T08:43:19.521Z,100602.44
2023-09-10T08:46:24.177Z,100600.63
2023-09-10T08:49:28.864Z,100604.72
2023-09-10T08:52:33.043Z,100601.31
2023-09-10T08:55:36.856Z,100596.00
2023-09-10T08:58:41.710Z,100588.59
2023-09-10T09:01:45.945Z,100596.56
2023-09-10T09:04:48.893Z,100587.03
2023-09-10T09:07:58.796Z,100595.31
2023-09-10T09:11:06.802Z,100583.34
2023-09-10T09:14:10.817Z,100593.25
2023-09-10T09:17:15.411Z,100582.84
2023-09-10T09:20:20.647Z,100585.50
2023-09-10T09:23:32.838Z,100583.66
2023-09-10T09:26:37.648Z,100586.84
2023-09-10T09:29:40.701Z,100582.81
2023-09-10T09:32:46.419Z,100574.81
2023-09-10T09:35:49.212Z,100576.41
2023-09-10T09:38:52.087Z,100577.72
2023-09-10T09:41:55.708Z,100564.09
2023-09-10T09:45:01.666Z,100572.28
2023-09-10T09:48:05.389Z,100560.53
2023-09-10T09:51:08.321Z,100566.91
2023-09-10T09:54:12.450Z,100558.13
2023-09-10T09:57:18.352Z,100569.28
2023-09-10T10:00:23.383Z,100559.78
2023-09-10T10:03:26.529Z,100552.34
2023-09-10T10:06:31.196Z,100557.88
2023-09-10T10:09:37.018Z,100540.00
2023-09-10T10:12:41.730Z,100544.16
2023-09-10T10:15:49.472Z,100546.00
2023-09-10T10:18:54.570Z,100541.63
2023-09-10T10:21:57.826Z,100533.78
2023-09-10T10:25:02.042Z,100530.59
2023-09-10T10:28:09.289Z,100533.88
2023-09-10T10:31:12.056Z,100535.56
2023-09-10T10:34:27.763Z,100523.47
2023-09-10T10:38:03.104Z,100523.22
2023-09-10T10:41:15.350Z,100518.69
2023-09-10T10:44:18.053Z,100517.59
2023-09-10T10:47:24.263Z,100519.19
2023-09-10T10:50:32.375Z,100518.56
2023-09-10T10:53:37.118Z,100508.72
2023-09-10T10:56:40.146Z,100503.19
2023-09-10T10:59:43.062Z,100503.09
2023-09-10T11:02:49.298Z,100498.59
2023-09-10T11:05:55.080Z,100493.38
2023-09-10T11:08:57.887Z,100491.03
2023-09-10T11:12:07.640Z,100495.84
2023-09-10T11:15:12.000Z,100496.28
2023-09-10T11:18:36.444Z,100493.53
2023-09-10T11:21:57.495Z,100480.38
2023-09-10T11:25:07.303Z,100485.16
2023-09-10T11:28:43.898Z,100480.19
2023-09-10T11:31:53.644Z,100479.69
2023-09-10T11:35:18.127Z,100478.44
2023-09-10T11:38:22.266Z,100476.06
2023-09-10T11:41:25.075Z,100471.19
2023-09-10T11:44:27.953Z,100472.97
2023-09-10T11:47:31.067Z,100473.22
2023-09-10T11:50:34.636Z,100464.72
2023-09-10T11:53:37.619Z,100467.63
2023-09-10T11:56:42.039Z,100457.94
2023-09-10T11:59:51.468Z,100460.56
2023-09-10T12:02:57.166Z,100450.34
2023-09-10T12:06:00.905Z,100437.75
2023-09-10T12:09:03.740Z,100441.63
2023-09-10T12:12:14.076Z,100434.19
2023-09-10T12:15:17.142Z,100436.88
2023-09-10T12:18:22.388Z,100437.69
2023-09-10T12:21:25.717Z,100437.19
2023-09-10T12:24:28.501Z,100437.94
2023-09-10T12:27:31.225Z,100431.75
2023-09-10T12:30:35.153Z,100433.19
2023-09-10T12:33:38.306Z,100433.63
2023-09-10T12:36:42.780Z,100436.38
2023-09-10T12:39:46.471Z,100433.06
2023-09-10T12:42:52.589Z,100433.34
2023-09-10T12:45:56.409Z,100421.25
2023-09-10T12:48:59.228Z,100433.84
2023-09-10T12:52:02.082Z,100429.06
2023-09-10T12:55:05.485Z,100417.88
2023-09-10T12:58:18.450Z,100418.09
2023-09-10T13:01:26.642Z,100405.59
2023-09-10T13:04:29.383Z,100412.53
2023-09-10T13:07:32.246Z,100414.38
2023-09-10T13:10:35.017Z,100410.69
2023-09-10T13:13:38.069Z,100413.00
2023-09-10T13:16:41.062Z,100411.34
2023-09-10T13:19:43.926Z,100420.59
2023-09-10T13:22:46.808Z,100411.19
2023-09-10T13:25:49.737Z,100409.38
2023-09-10T13:28:52.464Z,100415.69
2023-09-10T13:31:55.268Z,100407.78
2023-09-10T13:34:58.045Z,100412.19
2023-09-10T13:38:00.846Z,100403.03
2023-09-10T13:41:03.684Z,100403.50
2023-09-10T13:44:06.622Z,100401.75
2023-09-10T13:47:09.507Z,100391.06
2023-09-10T13:50:15.175Z,100392.00
2023-09-10T13:53:18.041Z,100388.31
2023-09-10T13:56:20.822Z,100386.22
2023-09-10T13:59:23.712Z,100373.47
2023-09-10T14:02:26.602Z,100367.16
2023-09-10T14:05:31.902Z,100371.81
2023-09-10T14:08:35.520Z,100369.91
2023-09-10T14:11:38.338Z,100353.19
2023-09-10T14:14:41.149Z,100371.03
2023-09-10T14:17:43.947Z,100369.72
2023-09-10T14:20:46.743Z,100371.44
2023-09-10T14:23:49.643Z,100365.84
2023-09-10T14:26:53.463Z,100362.19
2023-09-10T14:29:56.277Z,100363.94
2023-09-10T14:32:59.186Z,100366.31
2023-09-10T14:36:02.053Z,100367.00
2023-09-10T14:39:04.980Z,100370.69
2023-09-10T14:42:07.774Z,100363.63
2023-09-10T14:45:10.931Z,100361.09
2023-09-10T14:48:14.113Z,100359.50
2023-09-10T14:51:16.999Z,100360.88
2023-09-10T14:54:19.851Z,100360.31
2023-09-10T14:57:22.597Z,100361.53
2023-09-10T15:00:25.437Z,100364.50
2023-09-10T15:03:28.233Z,100363.78
2023-09-10T15:06:31.261Z,100357.69
2023-09-10T15:09:34.065Z,100358.72
2023-09-10T15:12:36.841Z,100352.44
2023-09-10T15:15:39.561Z,100348.91
2023-09-10T15:18:42.294Z,100345.94
2023-09-10T15:21:45.047Z,100346.59
2023-09-10T15:24:47.744Z,100348.31
2023-09-10T15:27:50.769Z,100338.06
2023-09-10T15:30:53.571Z,100342.59
2023-09-10T15:33:56.251Z,100337.91
2023-09-10T15:36:59.050Z,100332.38
2023-09-10T15:40:01.771Z,100333.78
2023-09-10T15:43:04.843Z,100334.72
2023-09-10T15:46:07.635Z,100341.75
2023-09-10T15:49:10.770Z,100339.75
2023-09-10T15:52:14.401Z,100342.63
2023-09-10T15:55:17.199Z,100331.22
2023-09-10T15:58:20.032Z,100342.47
2023-09-10T16:01:22.923Z,100334.72
2023-09-10T16:04:25.694Z,100336.03
2023-09-10T16:07:28.453Z,100336.03
2023-09-10T16:10:31.197Z,100344.16
2023-09-10T16:13:34.278Z,100337.84
2023-09-10T16:16:37.378Z,100337.09
2023-09-10T16:19:40.714Z,100341.44
2023-09-10T16:22:43.669Z,100339.56
2023-09-10T16:25:46.399Z,100318.31
2023-09-10T16:28:49.233Z,100331.13
2023-09-10T16:31:51.992Z,100333.66
2023-09-10T16:34:54.728Z,100330.84
2023-09-10T16:37:57.467Z,100337.56
2023-09-10T16:41:00.279Z,100333.63
2023-09-10T16:44:03.133Z,100329.97
2023-09-10T16:47:05.987Z,100339.34
2023-09-10T16:50:11.653Z,100337.00
2023-09-10T16:53:14.558Z,100333.56
2023-09-10T16:56:17.302Z,100336.28
2023-09-10T16:59:20.144Z,100340.50
2023-09-10T17:02:23.010Z,100342.38
2023-09-10T17:05:29.130Z,100354.06
2023-09-10T17:08:31.942Z,100355.34
2023-09-10T17:11:34.788Z,100353.69
2023-09-10T17:14:37.644Z,100348.34
2023-09-10T17:17:40.659Z,100353.63
2023-09-10T17:20:43.903Z,100361.53
2023-09-10T17:23:49.911Z,100358.31
2023-09-10T17:26:53.089Z,100355.88
2023-09-10T17:29:56.070Z,100358.72
2023-09-10T17:32:58.889Z,100366.88
2023-09-10T17:36:01.700Z,100371.34
2023-09-10T17:39:04.755Z,100359.28
2023-09-10T17:42:07.571Z,100374.09
2023-09-10T17:45:10.412Z,100377.44
2023-09-10T17:48:13.277Z,100374.13
2023-09-10T17:51:20.775Z,100369.47
2023-09-10T17:54:23.809Z,100382.41
2023-09-10T17:57:26.568Z,100381.25
2023-09-10T18:00:29.399Z,100381.41
2023-09-10T18:03:32.444Z,100385.53
2023-09-10T18:06:35.340Z,100387.84
2023-09-10T18:09:38.267Z,100390.13
2023-09-10T18:12:41.164Z,100390.75
2023-09-10T18:15:43.937Z,100399.38
2023-09-10T18:18:47.029Z,100401.13
2023-09-10T18:21:52.396Z,100393.34
2023-09-10T18:24:55.342Z,100397.41
2023-09-10T18:27:58.107Z,100396.22
2023-09-10T18:31:03.336Z,100398.66
2023-09-10T18:34:06.130Z,100395.38
2023-09-10T18:37:08.892Z,100398.53
2023-09-10T18:40:12.004Z,100403.91
2023-09-10T18:43:15.080Z,100400.06
2023-09-10T18:46:18.256Z,100403.25
2023-09-10T18:49:22.013Z,100400.94
2023-09-10T18:52:26.159Z,100412.22
2023-09-10T18:55:29.223Z,100411.59
2023-09-10T18:58:32.257Z,100405.97
2023-09-10T19:01:35.146Z,100409.50
2023-09-10T19:04:38.670Z,100414.84
2023-09-10T19:07:41.414Z,100415.25
2023-09-10T19:10:44.457Z,100413.81
2023-09-10T19:13:47.179Z,100413.41
2023-09-10T19:16:50.369Z,100419.81
2023-09-10T19:19:53.467Z,100421.13
2023-09-10T19:22:56.203Z,100420.22
2023-09-10T19:25:59.143Z,100416.44
2023-09-10T19:29:02.202Z,100416.94
2023-09-10T19:32:05.213Z,100415.38
2023-09-10T19:35:08.630Z,100420.44
2023-09-10T19:38:11.460Z,100416.66
2023-09-10T19:41:14.337Z,100424.91
2023-09-10T19:44:17.251Z,100418.50
2023-09-10T19:47:20.052Z,100416.03
2023-09-10T19:50:23.078Z,100419.72
2023-09-10T19:53:25.903Z,100418.59
2023-09-10T19:56:28.829Z,100415.28
2023-09-10T19:59:32.912Z,100431.91
2023-09-10T20:02:36.114Z,100435.25
2023-09-10T20:05:40.686Z,100436.84
2023-09-10T20:08:43.546Z,100435.00
2023-09-10T20:11:46.671Z,100435.13
2023-09-10T20:14:49.438Z,100436.25
2023-09-10T20:17:52.804Z,100437.75
2023-09-10T20:20:56.282Z,100441.88
2023-09-10T20:23:59.083Z,100447.72
2023-09-10T20:27:01.931Z,100443.47
2023-09-10T20:30:05.321Z,100447.09
2023-09-10T20:33:08.189Z,100448.38
2023-09-10T20:36:11.032Z,100449.31
2023-09-10T20:39:13.957Z,100450.66
2023-09-10T20:42:16.754Z,100440.50
2023-09-10T20:45:19.688Z,100443.81
2023-09-10T20:48:23.721Z,100443.13
2023-09-10T20:51:32.957Z,100442.38
2023-09-10T20:54:35.765Z,100445.59
2023-09-10T20:57:38.497Z,100437.22
2023-09-10T21:00:41.798Z,100433.25
2023-09-10T21:03:44.731Z,100434.72
2023-09-10T21:06:47.964Z,100438.16
2023-09-10T21:09:52.826Z,100437.38
2023-09-10T21:13:06.448Z,100433.13
2023-09-10T21:16:15.110Z,100438.91
2023-09-10T21:19:17.859Z,100429.97
2023-09-10T21:22:21.147Z,100435.84
2023-09-10T21:25:23.965Z,100438.25
2023-09-10T21:28:26.824Z,100433.63
2023-09-10T21:31:29.567Z,100429.50
2023-09-10T21:34:32.387Z,100414.09
2023-09-10T21:37:35.164Z,100421.28
2023-09-10T21:40:37.934Z,100424.69
2023-09-10T21:43:40.659Z,100427.78
2023-09-10T21:46:43.359Z,100423.63
2023-09-10T21:49:46.096Z,100421.88
2023-09-10T21:52:48.831Z,100416.81
2023-09-10T21:55:51.568Z,100412.19
2023-09-10T21:58:54.242Z,100414.13
2023-09-10T22:01:57.039Z,100413.16
2023-09-10T22:05:00.309Z,100421.13
2023-09-10T22:08:03.218Z,100412.34
2023-09-10T22:11:06.805Z,100407.69
2023-09-10T22:14:09.685Z,100407.31
2023-09-10T22:17:12.414Z,100408.34
2023-09-10T22:20:15.214Z,100406.72
2023-09-10T22:23:18.266Z,100408.41
2023-09-10T22:26:21.029Z,100403.59
2023-09-10T22:29:23.778Z,100410.06
2023-09-10T22:32:26.589Z,100403.22
2023-09-10T22:35:29.747Z,100403.59
2023-09-10T22:38:32.564Z,100392.69
2023-09-10T22:41:35.516Z,100399.63
2023-09-10T22:44:38.364Z,100406.88
2023-09-10T22:47:43.203Z,100402.84
2023-09-10T22:50:46.251Z,100407.78
2023-09-10T22:53:52.393Z,100394.25
2023-09-10T22:56:55.517Z,100402.59
2023-09-10T22:59:58.265Z,100402.88
2023-09-10T23:03:01.119Z,100402.69
2023-09-10T23:06:05.007Z,100401.72
2023-09-10T23:09:07.768Z,100397.69
2023-09-10T23:12:10.641Z,100395.72
2023-09-10T23:15:13.367Z,100387.06
2023-09-10T23:18:16.194Z,100389.25
2023-09-10T23:21:19.009Z,100392.72
2023-09-10T23:24:21.778Z,100398.03
2023-09-10T23:27:25.019Z,100391.78
2023-09-10T23:30:27.897Z,100391.41
2023-09-10T23:33:30.626Z,100385.19
2023-09-10T23:36:33.455Z,100386.25
2023-09-10T23:39:36.158Z,100386.41
2023-09-10T23:42:40.353Z,100389.28
2023-09-10T23:45:43.186Z,100399.88
2023-09-10T23:48:45.897Z,100391.16
2023-09-10T23:51:48.934Z,100386.16
2023-09-10T23:54:51.655Z,100386.59
2023-09-10T23:57:54.354Z,100384.31
